Time;durP1;ratioP1;P1;durP2;ratioP2;P2;SDS_P1;SDS_P2;PMS_P1;PMS_P2;Temp;Humidity;BMP_temperature;BMP_pressure;BME280_temperature;BME280_humidity;BME280_pressure;Samples;Min_cycle;Max_cycle;Signal;HPM_P1;HPM_P2
2022/03/14 00:01:06;;;;;;;14.52;5.78;;;3.70;99.90;;;;;;5078165;28;20408;-69
2022/03/14 00:03:41;;;;;;;12.68;6.93;;;3.70;99.90;;;;;;5060303;28;20416;-69
2022/03/14 00:06:12;;;;;;;12.93;6.20;;;3.70;99.90;;;;;;5077091;28;20028;-69
2022/03/14 00:08:44;;;;;;;15.20;7.57;;;3.70;99.90;;;;;;5076881;28;20035;-69
2022/03/14 00:11:14;;;;;;;15.65;6.75;;;3.70;99.90;;;;;;5076875;28;20317;-69
2022/03/14 00:13:46;;;;;;;14.40;6.38;;;3.70;99.90;;;;;;5077522;28;20106;-69
2022/03/14 00:16:33;;;;;;;16.38;6.80;;;3.70;99.90;;;;;;5076833;28;20020;-69
2022/03/14 00:19:01;;;;;;;13.45;7.60;;;3.70;99.90;;;;;;5059017;28;20105;-69
2022/03/14 00:21:29;;;;;;;14.63;7.35;;;3.80;99.90;;;;;;5076863;28;20027;-69
2022/03/14 00:23:58;;;;;;;14.70;7.28;;;3.80;99.90;;;;;;5076850;28;20059;-69
2022/03/14 00:26:26;;;;;;;13.85;6.28;;;3.80;99.90;;;;;;5076886;28;20021;-69
2022/03/14 00:28:53;;;;;;;12.50;5.63;;;3.80;99.90;;;;;;5078229;28;20021;-69
2022/03/14 00:31:21;;;;;;;9.52;5.50;;;3.80;99.90;;;;;;5077635;28;20024;-69
2022/03/14 00:33:49;;;;;;;13.57;6.05;;;3.80;99.90;;;;;;5077633;28;20037;-69
2022/03/14 00:36:17;;;;;;;9.77;5.45;;;3.80;99.90;;;;;;5077430;28;20360;-69
2022/03/14 00:38:44;;;;;;;12.85;6.38;;;3.80;99.90;;;;;;5078125;28;20017;-69
2022/03/14 00:41:12;;;;;;;16.75;7.45;;;3.80;99.90;;;;;;5078082;28;20040;-69
2022/03/14 00:43:40;;;;;;;10.13;5.65;;;3.80;99.90;;;;;;5077487;28;20028;-69
2022/03/14 00:46:08;;;;;;;12.80;6.40;;;3.70;99.90;;;;;;5078256;28;20033;-69
2022/03/14 00:48:36;;;;;;;10.10;5.55;;;3.70;99.90;;;;;;5076384;28;20036;-69
2022/03/14 00:51:05;;;;;;;12.25;6.25;;;3.70;99.90;;;;;;5076748;28;20036;-69
2022/03/14 00:53:33;;;;;;;13.98;6.80;;;3.70;99.90;;;;;;5076976;28;20115;-69
2022/03/14 00:56:00;;;;;;;11.73;6.30;;;3.60;99.90;;;;;;5076655;28;20099;-69
2022/03/14 00:58:29;;;;;;;10.82;6.22;;;3.60;99.90;;;;;;5058707;28;20036;-69
2022/03/14 01:00:56;;;;;;;12.40;6.78;;;3.60;99.90;;;;;;5076416;28;20032;-69
2022/03/14 01:03:23;;;;;;;15.38;6.63;;;3.50;99.90;;;;;;5076389;28;20012;-69
2022/03/14 01:05:50;;;;;;;13.45;7.10;;;3.50;99.90;;;;;;5077089;28;20020;-69
2022/03/14 01:08:18;;;;;;;10.15;6.00;;;3.50;99.90;;;;;;5076344;28;20024;-70
2022/03/14 01:10:47;;;;;;;12.13;5.95;;;3.40;99.90;;;;;;5077284;28;20017;-69
2022/03/14 01:13:16;;;;;;;11.70;6.65;;;3.40;99.90;;;;;;5077760;28;20470;-69
2022/03/14 01:15:44;;;;;;;13.82;6.85;;;3.40;99.90;;;;;;5077174;28;20025;-69
2022/03/14 01:18:13;;;;;;;11.15;6.50;;;3.40;99.90;;;;;;5077236;28;20312;-69
2022/03/14 01:20:41;;;;;;;14.10;6.82;;;3.30;99.90;;;;;;5077132;28;20040;-69
2022/03/14 01:23:09;;;;;;;15.00;8.20;;;3.40;99.90;;;;;;5077196;28;20048;-69
2022/03/14 01:25:42;;;;;;;15.02;8.48;;;3.30;99.90;;;;;;5077162;28;20021;-69
2022/03/14 01:28:10;;;;;;;14.82;7.55;;;3.30;99.90;;;;;;5077803;28;20436;-69
2022/03/14 01:30:39;;;;;;;17.48;7.13;;;3.30;99.90;;;;;;5077236;28;20360;-69
2022/03/14 01:33:06;;;;;;;15.60;7.30;;;3.20;99.90;;;;;;5076113;28;20029;-69
2022/03/14 01:35:34;;;;;;;12.30;6.63;;;3.20;99.90;;;;;;5076063;28;20413;-69
2022/03/14 01:38:02;;;;;;;17.88;9.30;;;3.20;99.90;;;;;;5076799;28;20028;-69
2022/03/14 01:40:30;;;;;;;12.52;7.43;;;3.20;99.90;;;;;;5076053;28;20095;-69
2022/03/14 01:42:58;;;;;;;14.82;7.28;;;3.10;99.90;;;;;;5076057;28;20024;-69
2022/03/14 01:45:25;;;;;;;15.55;7.05;;;3.10;99.90;;;;;;5076579;28;20020;-69
2022/03/14 01:47:53;;;;;;;13.80;6.93;;;3.10;99.90;;;;;;5078748;28;20397;-69
2022/03/14 01:50:24;;;;;;;10.30;6.18;;;3.10;99.90;;;;;;5079774;28;20043;-69
2022/03/14 01:52:51;;;;;;;11.75;5.78;;;3.00;99.90;;;;;;5062815;28;20024;-69
2022/03/14 01:55:18;;;;;;;16.92;9.05;;;3.00;99.90;;;;;;5081018;28;20028;-69
2022/03/14 01:57:46;;;;;;;13.02;6.97;;;3.00;99.90;;;;;;5080747;28;20013;-69
2022/03/14 02:00:14;;;;;;;14.15;7.22;;;3.00;99.90;;;;;;5062705;28;20021;-69
2022/03/14 02:02:42;;;;;;;13.77;6.82;;;3.00;99.90;;;;;;5080341;28;20407;-69
2022/03/14 02:05:11;;;;;;;13.93;7.13;;;3.00;99.90;;;;;;5062623;28;20035;-69
2022/03/14 02:07:39;;;;;;;15.85;6.68;;;3.00;99.90;;;;;;5080590;28;20024;-69
2022/03/14 02:10:08;;;;;;;13.45;6.85;;;3.00;99.90;;;;;;5063300;28;20035;-69
2022/03/14 02:12:35;;;;;;;17.20;7.10;;;2.90;99.90;;;;;;5080105;28;20031;-69
2022/03/14 02:15:02;;;;;;;11.75;6.05;;;2.90;99.90;;;;;;5079230;28;20035;-69
2022/03/14 02:17:30;;;;;;;12.50;6.35;;;2.90;99.90;;;;;;5061580;28;20021;-69
2022/03/14 02:20:01;;;;;;;13.95;6.45;;;2.90;99.90;;;;;;5079177;28;20421;-69
2022/03/14 02:22:28;;;;;;;14.40;6.75;;;2.90;99.90;;;;;;5079164;28;20439;-69
2022/03/14 02:24:56;;;;;;;13.10;6.10;;;2.90;99.90;;;;;;5061464;28;20033;-69
2022/03/14 02:27:23;;;;;;;12.85;7.35;;;2.90;99.90;;;;;;5079239;28;20047;-69
2022/03/14 02:29:51;;;;;;;13.27;7.43;;;2.90;99.90;;;;;;5079634;28;20024;-69
2022/03/14 02:32:18;;;;;;;12.73;6.60;;;2.90;99.90;;;;;;5079539;28;20025;-69
2022/03/14 02:34:45;;;;;;;13.68;6.80;;;3.00;99.90;;;;;;5079312;28;20021;-69
2022/03/14 02:37:13;;;;;;;12.70;6.68;;;3.00;99.90;;;;;;5062220;28;20024;-69
2022/03/14 02:39:41;;;;;;;11.65;6.28;;;2.90;99.90;;;;;;5079793;28;20298;-69
2022/03/14 02:42:08;;;;;;;12.45;6.20;;;2.90;99.90;;;;;;5080340;28;20020;-69
2022/03/14 02:44:42;;;;;;;12.95;6.95;;;2.90;99.90;;;;;;5061970;28;20025;-69
2022/03/14 02:47:11;;;;;;;11.60;5.57;;;2.80;99.90;;;;;;5080242;28;20063;-69
2022/03/14 02:49:39;;;;;;;13.55;6.97;;;2.90;99.90;;;;;;5079668;28;20020;-69
2022/03/14 02:52:07;;;;;;;11.00;5.82;;;2.90;99.90;;;;;;5080128;28;20393;-69
2022/03/14 02:54:34;;;;;;;13.38;5.97;;;2.90;99.90;;;;;;5079145;28;20020;-69
2022/03/14 02:57:01;;;;;;;10.55;6.25;;;3.00;99.90;;;;;;5079091;28;20013;-69
2022/03/14 02:59:29;;;;;;;12.30;5.90;;;3.00;99.90;;;;;;5078937;28;20393;-69
2022/03/14 03:01:56;;;;;;;15.80;6.32;;;3.00;99.90;;;;;;5078407;28;20021;-69
2022/03/14 03:04:23;;;;;;;15.43;5.43;;;3.10;99.90;;;;;;5078693;28;20349;-69
2022/03/14 03:06:50;;;;;;;10.40;6.30;;;3.10;99.90;;;;;;5060752;28;20127;-69
2022/03/14 03:09:17;;;;;;;13.38;5.72;;;3.10;99.90;;;;;;5060783;28;20373;-69
2022/03/14 03:11:45;;;;;;;11.68;6.00;;;3.10;99.90;;;;;;5060692;28;20032;-69
2022/03/14 03:14:12;;;;;;;10.15;5.85;;;3.20;99.90;;;;;;5078695;28;20108;-69
2022/03/14 03:16:40;;;;;;;13.63;6.97;;;3.20;99.90;;;;;;5078308;28;20021;-69
2022/03/14 03:19:07;;;;;;;12.30;5.90;;;3.30;99.90;;;;;;5061091;28;20024;-69
2022/03/14 03:21:39;;;;;;;12.57;6.43;;;3.30;99.90;;;;;;5061433;28;20031;-69
2022/03/14 03:24:08;;;;;;;10.05;5.50;;;3.40;99.90;;;;;;5078902;28;20028;-69
2022/03/14 03:26:39;;;;;;;12.40;6.07;;;3.40;99.90;;;;;;5079243;28;20032;-69
2022/03/14 03:29:10;;;;;;;15.98;7.35;;;3.40;99.90;;;;;;5078878;28;20353;-69
2022/03/14 03:31:38;;;;;;;9.40;5.18;;;3.50;99.90;;;;;;5078858;28;20024;-69
2022/03/14 03:34:06;;;;;;;12.82;6.18;;;3.50;99.90;;;;;;5078726;28;20120;-69
2022/03/14 03:36:33;;;;;;;16.17;6.70;;;3.50;99.90;;;;;;5078719;28;20048;-69
2022/03/14 03:39:01;;;;;;;11.57;5.38;;;3.50;99.90;;;;;;5077998;28;20024;-69
2022/03/14 03:41:29;;;;;;;10.20;5.72;;;3.50;99.90;;;;;;5078389;28;20025;-69
2022/03/14 03:43:56;;;;;;;11.63;6.57;;;3.50;99.90;;;;;;5078180;28;20017;-69
2022/03/14 03:46:23;;;;;;;10.93;6.15;;;3.50;99.90;;;;;;5078062;28;20031;-69
2022/03/14 03:48:51;;;;;;;10.75;5.85;;;3.50;99.90;;;;;;5059729;28;20058;-69
2022/03/14 03:51:18;;;;;;;12.30;6.40;;;3.50;99.90;;;;;;5078471;28;20025;-69
2022/03/14 03:53:46;;;;;;;11.20;5.82;;;3.50;99.90;;;;;;5059636;28;20463;-69
2022/03/14 03:56:13;;;;;;;14.45;6.53;;;3.50;99.90;;;;;;5077400;28;20073;-69
2022/03/14 03:58:41;;;;;;;11.45;5.90;;;3.50;99.90;;;;;;5059576;28;20028;-69
2022/03/14 04:01:10;;;;;;;13.75;6.30;;;3.50;99.90;;;;;;5078555;28;20408;-69
2022/03/14 04:03:37;;;;;;;12.65;6.63;;;3.50;99.90;;;;;;5078762;28;20031;-69
2022/03/14 04:06:05;;;;;;;12.32;5.68;;;3.60;99.90;;;;;;5078381;28;20021;-69
2022/03/14 04:08:34;;;;;;;9.95;5.72;;;3.60;99.90;;;;;;5078106;28;20032;-69
2022/03/14 04:11:05;;;;;;;14.48;6.45;;;3.60;99.90;;;;;;5078305;28;20048;-69
2022/03/14 04:13:33;;;;;;;13.40;6.65;;;3.60;99.90;;;;;;5078370;28;20021;-69
2022/03/14 04:16:01;;;;;;;15.32;6.45;;;3.60;99.90;;;;;;5077917;28;20134;-69
2022/03/14 04:18:29;;;;;;;14.00;6.05;;;3.60;99.90;;;;;;5078451;28;20044;-69
2022/03/14 04:20:57;;;;;;;12.02;6.65;;;3.60;99.90;;;;;;5091524;28;20046;-69
2022/03/14 04:23:24;;;;;;;11.10;5.82;;;3.70;99.90;;;;;;5097721;28;20027;-69
2022/03/14 04:25:51;;;;;;;9.98;5.30;;;3.70;99.90;;;;;;5096092;28;20028;-69
2022/03/14 04:28:18;;;;;;;10.80;5.80;;;3.70;99.90;;;;;;5096028;28;20064;-69
2022/03/14 04:30:46;;;;;;;13.10;5.32;;;3.80;99.90;;;;;;5097343;28;20408;-69
2022/03/14 04:33:14;;;;;;;14.25;6.03;;;3.80;99.90;;;;;;5096075;28;20027;-69
2022/03/14 04:35:41;;;;;;;9.55;5.63;;;3.90;99.90;;;;;;5096953;28;20028;-69
2022/03/14 04:38:08;;;;;;;11.02;6.13;;;3.90;99.90;;;;;;5096996;28;20020;-69
2022/03/14 04:40:36;;;;;;;10.98;5.90;;;3.90;99.90;;;;;;5097484;28;20316;-69
2022/03/14 04:43:08;;;;;;;12.32;5.85;;;3.90;99.90;;;;;;5096309;28;20020;-69
2022/03/14 04:45:37;;;;;;;10.95;5.75;;;3.90;99.90;;;;;;5097734;28;20309;-69
2022/03/14 04:48:06;;;;;;;11.98;5.72;;;3.90;99.90;;;;;;5097710;28;20146;-69
2022/03/14 04:50:35;;;;;;;12.45;5.93;;;4.00;99.90;;;;;;5098021;28;20048;-69
2022/03/14 04:53:04;;;;;;;11.00;6.13;;;4.00;99.90;;;;;;5098342;28;20074;-69
2022/03/14 04:55:31;;;;;;;13.63;6.97;;;4.00;99.90;;;;;;5097578;28;20065;-69
2022/03/14 04:57:58;;;;;;;13.70;5.95;;;4.10;99.90;;;;;;5096585;28;20384;-69
2022/03/14 05:00:28;;;;;;;15.13;5.93;;;4.10;99.90;;;;;;5097631;28;20024;-69
2022/03/14 05:03:06;;;;;;;10.98;5.50;;;4.10;99.90;;;;;;5097928;28;20024;-69
2022/03/14 05:05:34;;;;;;;12.13;6.18;;;4.10;99.90;;;;;;5096648;28;20112;-69
2022/03/14 05:08:02;;;;;;;16.02;7.28;;;4.20;99.90;;;;;;5095547;28;20028;-69
2022/03/14 05:10:30;;;;;;;22.00;9.73;;;4.20;99.90;;;;;;5095508;28;20027;-69
2022/03/14 05:13:01;;;;;;;18.98;8.25;;;4.20;99.90;;;;;;5097234;28;20027;-69
2022/03/14 05:15:29;;;;;;;12.30;6.45;;;4.30;99.90;;;;;;5096460;28;20023;-69
2022/03/14 05:18:01;;;;;;;12.82;6.65;;;4.30;99.90;;;;;;5095371;28;20020;-69
2022/03/14 05:20:28;;;;;;;13.10;6.47;;;4.30;99.90;;;;;;5082536;28;20487;-69
2022/03/14 05:22:57;;;;;;;14.25;6.63;;;4.30;99.90;;;;;;5059830;28;20025;-69
2022/03/14 05:25:24;;;;;;;14.60;6.97;;;4.30;99.90;;;;;;5079233;28;20031;-69
2022/03/14 05:27:53;;;;;;;11.80;6.38;;;4.30;99.90;;;;;;5062101;28;20028;-69
2022/03/14 05:30:21;;;;;;;13.82;6.30;;;4.30;99.90;;;;;;5080369;28;20335;-69
2022/03/14 05:32:49;;;;;;;11.00;6.28;;;4.30;99.90;;;;;;5079670;28;20331;-69
2022/03/14 05:35:16;;;;;;;13.73;6.00;;;4.30;99.90;;;;;;5061927;28;20029;-69
2022/03/14 05:37:44;;;;;;;12.38;5.82;;;4.30;99.90;;;;;;5062161;28;20019;-69
2022/03/14 05:40:15;;;;;;;15.95;6.55;;;4.40;99.90;;;;;;5080190;28;20059;-69
2022/03/14 05:42:45;;;;;;;17.83;7.68;;;4.40;99.90;;;;;;5079913;28;20017;-69
2022/03/14 05:45:14;;;;;;;17.42;8.07;;;4.40;99.90;;;;;;5079618;28;20462;-69
2022/03/14 05:47:41;;;;;;;18.20;7.82;;;4.50;99.90;;;;;;5078524;28;20033;-69
2022/03/14 05:50:09;;;;;;;17.23;7.57;;;4.60;99.90;;;;;;5078520;28;20016;-69
2022/03/14 05:52:37;;;;;;;17.73;7.68;;;4.60;99.90;;;;;;5078617;28;20354;-69
2022/03/14 05:55:09;;;;;;;15.48;6.88;;;4.70;99.90;;;;;;5078342;28;20036;-69
2022/03/14 05:57:36;;;;;;;13.73;6.97;;;4.80;99.90;;;;;;5078448;28;20045;-69
2022/03/14 06:00:05;;;;;;;19.15;6.25;;;4.90;99.90;;;;;;5078975;28;20100;-69
2022/03/14 06:02:34;;;;;;;20.58;6.55;;;5.00;99.90;;;;;;5078482;28;20017;-69
2022/03/14 06:05:02;;;;;;;11.95;6.38;;;5.20;99.90;;;;;;5078337;28;20086;-69
2022/03/14 06:07:30;;;;;;;13.65;6.68;;;5.30;99.90;;;;;;5078555;28;20028;-69
2022/03/14 06:09:58;;;;;;;16.55;7.47;;;5.40;99.90;;;;;;5079707;28;20031;-69
2022/03/14 06:12:26;;;;;;;17.85;6.88;;;5.50;99.90;;;;;;5079197;28;20321;-70
2022/03/14 06:14:58;;;;;;;15.40;7.28;;;5.60;99.90;;;;;;5079464;28;20112;-69
2022/03/14 06:17:27;;;;;;;16.40;8.02;;;5.70;99.90;;;;;;5079052;28;20020;-69
2022/03/14 06:19:55;;;;;;;13.23;7.38;;;5.80;99.90;;;;;;4995278;28;2398197;-69
2022/03/14 06:22:23;;;;;;;15.00;7.45;;;5.90;99.90;;;;;;5080816;28;20028;-70
2022/03/14 06:24:51;;;;;;;18.60;8.40;;;6.00;99.90;;;;;;5062324;28;20036;-72
2022/03/14 06:27:21;;;;;;;19.60;8.70;;;6.10;99.90;;;;;;5079894;28;20031;-69
2022/03/14 06:29:49;;;;;;;19.48;8.55;;;6.20;99.90;;;;;;5061365;28;20035;-69
2022/03/14 06:32:17;;;;;;;19.52;9.15;;;6.30;99.90;;;;;;5079115;28;20028;-69
2022/03/14 06:34:44;;;;;;;22.95;8.85;;;6.30;99.90;;;;;;5060909;28;20036;-69
2022/03/14 06:37:12;;;;;;;22.27;9.52;;;6.40;99.90;;;;;;5079100;28;20021;-73
2022/03/14 06:39:40;;;;;;;22.33;10.05;;;6.50;99.90;;;;;;5079633;28;20099;-72
2022/03/14 06:42:09;;;;;;;28.17;9.23;;;6.50;99.90;;;;;;5061343;28;20017;-73
2022/03/14 06:44:38;;;;;;;21.50;10.18;;;6.50;99.90;;;;;;5079202;28;20451;-80
2022/03/14 06:47:08;;;;;;;21.73;10.15;;;6.60;99.90;;;;;;5078840;28;20025;-73
2022/03/14 06:49:36;;;;;;;30.73;10.02;;;6.70;99.90;;;;;;5078764;28;20025;-74
2022/03/14 06:52:04;;;;;;;24.83;10.27;;;6.70;99.90;;;;;;5079725;28;20066;-73
2022/03/14 06:54:32;;;;;;;22.90;11.00;;;6.80;99.90;;;;;;5061861;28;20020;-72
2022/03/14 06:56:59;;;;;;;31.33;11.18;;;6.90;99.90;;;;;;5079662;28;20020;-82
2022/03/14 06:59:27;;;;;;;24.55;10.35;;;7.00;99.90;;;;;;5079747;28;20017;-77
2022/03/14 07:01:54;;;;;;;21.83;8.85;;;7.00;99.90;;;;;;5061756;28;20028;-77
2022/03/14 07:04:22;;;;;;;18.42;10.25;;;7.00;99.90;;;;;;5079370;28;20056;-77
2022/03/14 07:06:50;;;;;;;20.70;10.60;;;7.10;99.90;;;;;;5079376;28;20021;-75
2022/03/14 07:09:18;;;;;;;17.90;9.38;;;7.20;99.90;;;;;;5079143;28;20107;-74
2022/03/14 07:11:51;;;;;;;18.23;9.75;;;7.20;99.90;;;;;;5078533;28;20021;-75
2022/03/14 07:14:21;;;;;;;19.77;9.45;;;7.30;99.90;;;;;;5078362;28;20055;-77
2022/03/14 07:16:49;;;;;;;19.27;9.18;;;7.40;99.90;;;;;;5060406;28;20107;-76
2022/03/14 07:19:16;;;;;;;20.15;10.43;;;7.40;99.90;;;;;;5078136;28;20049;-76
2022/03/14 07:21:43;;;;;;;24.20;10.43;;;7.50;99.90;;;;;;5078341;28;20024;-76
2022/03/14 07:24:12;;;;;;;20.77;10.85;;;7.50;99.90;;;;;;5060207;28;20052;-76
2022/03/14 07:26:40;;;;;;;22.60;10.88;;;7.50;99.90;;;;;;5060366;28;20434;-76
2022/03/14 07:29:07;;;;;;;19.15;10.02;;;7.50;99.90;;;;;;5078519;28;20021;-74
2022/03/14 07:31:37;;;;;;;25.27;11.63;;;7.40;99.90;;;;;;5078022;28;20108;-74
2022/03/14 07:34:05;;;;;;;22.60;11.90;;;7.40;99.90;;;;;;5078610;28;20029;-74
2022/03/14 07:36:34;;;;;;;28.45;11.15;;;7.40;99.90;;;;;;5079303;28;20021;-74
2022/03/14 07:39:07;;;;;;;22.10;11.35;;;7.40;99.90;;;;;;5079135;28;20028;-72
2022/03/14 07:41:36;;;;;;;20.55;11.52;;;7.40;99.90;;;;;;5079012;28;20091;-75
2022/03/14 07:44:05;;;;;;;22.40;12.18;;;7.30;99.90;;;;;;5059817;28;20119;-74
2022/03/14 07:46:34;;;;;;;21.70;10.95;;;7.30;99.90;;;;;;5077966;28;20029;-75
2022/03/14 07:49:03;;;;;;;21.67;11.68;;;7.20;99.90;;;;;;5060573;28;20424;-73
2022/03/14 07:51:32;;;;;;;23.33;11.45;;;7.20;99.90;;;;;;5079092;28;20111;-73
2022/03/14 07:53:59;;;;;;;20.48;10.38;;;7.20;99.90;;;;;;5077391;28;20020;-75
2022/03/14 07:56:26;;;;;;;19.33;10.13;;;7.10;99.90;;;;;;5077857;28;20025;-77
2022/03/14 07:58:53;;;;;;;22.00;11.65;;;7.10;99.90;;;;;;5059458;28;20020;-76
2022/03/14 08:01:21;;;;;;;19.73;11.07;;;7.10;99.90;;;;;;5059454;28;20048;-76
2022/03/14 08:03:48;;;;;;;24.10;12.63;;;7.10;99.90;;;;;;5059512;28;20016;-76
2022/03/14 08:06:22;;;;;;;20.80;10.18;;;7.10;99.90;;;;;;5059525;28;20020;-76
2022/03/14 08:08:53;;;;;;;20.08;11.32;;;7.10;99.90;;;;;;5077134;28;20036;-77
2022/03/14 08:11:23;;;;;;;17.83;9.35;;;7.10;99.90;;;;;;5059446;28;20024;-77
2022/03/14 08:13:52;;;;;;;18.70;8.95;;;7.10;99.90;;;;;;5059143;28;20063;-77
2022/03/14 08:16:20;;;;;;;16.13;8.75;;;7.10;99.90;;;;;;5058823;28;20056;-77
2022/03/14 08:18:47;;;;;;;16.15;9.32;;;7.10;99.90;;;;;;5076175;28;20024;-77
2022/03/14 08:21:15;;;;;;;16.77;8.57;;;7.10;99.90;;;;;;5077765;28;20052;-75
2022/03/14 08:23:42;;;;;;;18.13;9.35;;;7.10;99.90;;;;;;5060145;28;20107;-76
2022/03/14 08:26:11;;;;;;;16.95;8.55;;;7.20;99.90;;;;;;5060263;28;20021;-76
2022/03/14 08:28:41;;;;;;;15.23;8.40;;;7.20;99.90;;;;;;5060055;28;20079;-76
2022/03/14 08:31:10;;;;;;;15.85;8.52;;;7.20;99.90;;;;;;5059856;28;20021;-76
2022/03/14 08:33:41;;;;;;;15.60;6.60;;;7.20;99.90;;;;;;5059952;28;20017;-76
2022/03/14 08:36:09;;;;;;;12.73;6.53;;;7.20;99.90;;;;;;5076889;28;20229;-77
2022/03/14 08:38:37;;;;;;;12.43;6.90;;;7.30;99.90;;;;;;5059007;28;20021;-76
2022/03/14 08:41:06;;;;;;;11.73;6.35;;;7.30;99.90;;;;;;5058952;28;20025;-76
2022/03/14 08:43:33;;;;;;;11.45;6.65;;;7.30;99.90;;;;;;5059158;28;20035;-76
2022/03/14 08:46:01;;;;;;;10.63;6.25;;;7.30;99.90;;;;;;5058916;28;20051;-76
2022/03/14 08:48:28;;;;;;;10.70;6.47;;;7.30;99.90;;;;;;5058865;28;20027;-76
2022/03/14 08:50:55;;;;;;;12.40;6.47;;;7.30;99.90;;;;;;5077175;28;20083;-75
2022/03/14 08:53:23;;;;;;;11.63;6.85;;;7.30;99.90;;;;;;5058780;28;20025;-74
2022/03/14 08:55:53;;;;;;;12.80;5.85;;;7.40;99.90;;;;;;5076984;28;20056;-74
2022/03/14 08:58:22;;;;;;;10.18;5.63;;;7.40;99.90;;;;;;5077388;28;20086;-75
2022/03/14 09:00:51;;;;;;;9.75;5.70;;;7.40;99.90;;;;;;5077721;28;20028;-75
2022/03/14 09:03:18;;;;;;;10.88;5.30;;;7.40;99.90;;;;;;5077900;28;20020;-75
2022/03/14 09:05:46;;;;;;;10.32;5.55;;;7.40;99.90;;;;;;5077753;28;20036;-75
2022/03/14 09:08:14;;;;;;;8.75;5.20;;;7.40;99.90;;;;;;5077827;28;20073;-75
2022/03/14 09:10:42;;;;;;;9.63;4.65;;;7.40;99.90;;;;;;5077916;28;20024;-78
2022/03/14 09:13:09;;;;;;;8.43;4.47;;;7.50;99.90;;;;;;5059490;28;20026;-78
2022/03/14 09:15:36;;;;;;;8.45;4.22;;;7.50;99.90;;;;;;5059417;28;20024;-75
2022/03/14 09:18:03;;;;;;;9.30;4.38;;;7.50;99.90;;;;;;5076587;28;20021;-77
2022/03/14 09:20:31;;;;;;;7.55;3.45;;;7.50;99.90;;;;;;5076446;28;20040;-77
2022/03/14 09:22:58;;;;;;;7.07;3.80;;;7.50;99.90;;;;;;5076228;28;20031;-77
2022/03/14 09:25:26;;;;;;;7.28;4.03;;;7.60;99.90;;;;;;5076759;28;20028;-78
2022/03/14 09:27:53;;;;;;;10.10;3.42;;;7.60;99.90;;;;;;5076457;28;20025;-77
2022/03/14 09:30:22;;;;;;;5.93;3.03;;;7.70;99.90;;;;;;5076302;28;20028;-77
2022/03/14 09:32:50;;;;;;;5.72;2.75;;;7.70;99.90;;;;;;5076250;28;20059;-76
2022/03/14 09:35:18;;;;;;;5.10;2.38;;;7.80;99.90;;;;;;5075996;28;20021;-78
2022/03/14 09:37:46;;;;;;;3.83;1.98;;;7.80;99.90;;;;;;5058295;28;20028;-77
2022/03/14 09:40:19;;;;;;;4.95;2.17;;;7.90;99.90;;;;;;5077113;28;20070;-77
2022/03/14 09:42:48;;;;;;;3.47;1.85;;;7.90;99.90;;;;;;5077437;28;20051;-77
2022/03/14 09:45:16;;;;;;;5.32;1.80;;;7.90;99.90;;;;;;5059158;28;20056;-77
2022/03/14 09:47:47;;;;;;;4.18;1.75;;;7.90;99.90;;;;;;5077105;28;20486;-77
2022/03/14 09:50:28;;;;;;;3.67;1.80;;;8.00;99.90;;;;;;5076872;28;20028;-77
2022/03/14 09:52:58;;;;;;;3.00;1.48;;;8.00;99.90;;;;;;5076852;28;20032;-77
2022/03/14 09:55:30;;;;;;;3.20;1.77;;;8.10;99.90;;;;;;5076853;28;20025;-77
2022/03/14 09:57:57;;;;;;;3.25;1.50;;;8.10;99.90;;;;;;5059068;28;20025;-77
2022/03/14 10:00:25;;;;;;;2.83;1.45;;;8.20;99.90;;;;;;5076257;28;20073;-75
2022/03/14 10:02:53;;;;;;;3.35;1.50;;;8.30;99.90;;;;;;5076071;28;20111;-76
2022/03/14 10:05:20;;;;;;;4.28;1.90;;;8.40;99.90;;;;;;5075984;28;20320;-77
2022/03/14 10:07:48;;;;;;;3.35;1.65;;;8.50;99.90;;;;;;5058567;28;20032;-77
2022/03/14 10:10:15;;;;;;;3.55;1.92;;;8.70;99.90;;;;;;5061790;28;20028;-76
2022/03/14 10:12:43;;;;;;;3.97;2.03;;;8.90;99.90;;;;;;5079719;28;20035;-77
2022/03/14 10:15:12;;;;;;;4.13;2.10;;;9.00;99.90;;;;;;5079336;28;20417;-76
2022/03/14 10:17:40;;;;;;;3.95;2.17;;;9.20;99.90;;;;;;5079987;28;20021;-76
2022/03/14 10:20:10;;;;;;;4.35;2.20;;;9.30;99.90;;;;;;5076475;28;20052;-76
2022/03/14 10:22:42;;;;;;;3.88;2.30;;;9.40;99.90;;;;;;5098893;28;20024;-75
2022/03/14 10:25:19;;;;;;;5.95;3.15;;;9.50;99.90;;;;;;5099651;28;20024;-76
2022/03/14 10:27:55;;;;;;;3.47;1.73;;;9.50;99.90;;;;;;5099461;28;20020;-76
2022/03/14 10:30:32;;;;;;;2.95;1.67;;;9.60;99.90;;;;;;5099128;28;20036;-78
2022/03/14 10:33:07;;;;;;;7.75;3.45;;;9.70;99.90;;;;;;5100774;28;20027;-75
2022/03/14 10:35:43;;;;;;;2.93;1.70;;;9.70;99.90;;;;;;5100467;28;20084;-73
2022/03/14 10:38:13;;;;;;;3.97;1.92;;;9.70;99.90;;;;;;5100101;28;20030;-77
2022/03/14 10:40:43;;;;;;;3.83;1.73;;;9.60;99.90;;;;;;5100339;28;20081;-77
2022/03/14 10:43:29;;;;;;;4.80;2.38;;;9.50;99.90;;;;;;5099830;28;20020;-77
2022/03/14 10:45:57;;;;;;;4.07;2.13;;;9.40;99.90;;;;;;5097944;28;20455;-78
2022/03/14 10:48:46;;;;;;;7.10;2.25;;;9.30;99.90;;;;;;5099003;28;20742;-77
2022/03/14 10:51:14;;;;;;;4.78;2.60;;;9.10;99.90;;;;;;5098093;28;20038;-77
2022/03/14 10:53:47;;;;;;;4.03;1.95;;;9.10;99.90;;;;;;5099475;28;20431;-77
2022/03/14 10:56:19;;;;;;;5.18;2.88;;;9.10;99.90;;;;;;5099188;28;20024;-76
2022/03/14 10:58:47;;;;;;;6.15;2.83;;;9.00;99.90;;;;;;5098862;28;20020;-75
2022/03/14 11:01:15;;;;;;;4.07;2.25;;;9.00;99.90;;;;;;5098872;28;20021;-77
2022/03/14 11:03:45;;;;;;;6.78;3.17;;;8.90;99.90;;;;;;5097680;28;20073;-77
2022/03/14 11:06:14;;;;;;;4.75;2.58;;;8.90;99.90;;;;;;5099208;28;20076;-76
2022/03/14 11:08:43;;;;;;;4.65;3.03;;;8.90;99.90;;;;;;5099619;28;20073;-74
2022/03/14 11:11:14;;;;;;;7.07;3.30;;;8.80;99.90;;;;;;5099644;28;20324;-75
2022/03/14 11:13:47;;;;;;;5.57;3.33;;;8.80;99.90;;;;;;5099405;28;20442;-76
2022/03/14 11:16:22;;;;;;;5.65;3.00;;;8.80;99.90;;;;;;5098301;28;20355;-75
2022/03/14 11:18:51;;;;;;;8.15;3.13;;;8.80;99.90;;;;;;5099480;28;20020;-74
2022/03/14 11:21:20;;;;;;;6.75;3.78;;;8.80;99.90;;;;;;5097257;28;20040;-75
2022/03/14 11:23:49;;;;;;;6.18;3.45;;;8.80;99.90;;;;;;5099373;28;20023;-76
2022/03/14 11:26:20;;;;;;;7.97;4.10;;;8.80;99.90;;;;;;5098667;28;20027;-77
2022/03/14 11:28:49;;;;;;;6.05;3.97;;;8.90;99.90;;;;;;5097191;28;20020;-76
2022/03/14 11:31:21;;;;;;;7.07;4.18;;;8.90;99.90;;;;;;5097109;28;20324;-77
2022/03/14 11:33:49;;;;;;;8.38;4.32;;;9.00;99.90;;;;;;5098671;28;20016;-76
2022/03/14 11:36:22;;;;;;;7.38;4.75;;;9.00;99.90;;;;;;5098559;28;20019;-76
2022/03/14 11:38:49;;;;;;;8.25;4.93;;;9.00;99.90;;;;;;5097050;28;20038;-76
2022/03/14 11:41:18;;;;;;;8.27;5.10;;;9.00;99.90;;;;;;5098306;28;20481;-77
2022/03/14 11:43:48;;;;;;;10.27;5.63;;;9.00;99.90;;;;;;5096895;28;20370;-74
2022/03/14 11:46:16;;;;;;;12.65;6.50;;;9.00;99.90;;;;;;5097671;28;20099;-75
2022/03/14 11:48:43;;;;;;;11.02;6.53;;;9.30;99.90;;;;;;5098519;28;20066;-75
2022/03/14 11:51:11;;;;;;;14.93;5.63;;;9.50;99.90;;;;;;5098802;28;20020;-75
2022/03/14 11:53:50;;;;;;;10.27;6.45;;;9.90;99.90;;;;;;5099249;28;20020;-75
2022/03/14 11:56:17;;;;;;;11.35;7.63;;;10.20;99.90;;;;;;5098891;28;20031;-75
2022/03/14 11:58:53;;;;;;;9.82;6.22;;;10.40;99.90;;;;;;5098668;28;20020;-75
2022/03/14 12:01:26;;;;;;;10.45;6.35;;;10.40;99.90;;;;;;5098745;28;20012;-75
2022/03/14 12:03:59;;;;;;;14.57;8.57;;;10.20;99.90;;;;;;5097488;28;20096;-75
2022/03/14 12:06:49;;;;;;;14.50;8.13;;;10.00;99.90;;;;;;5098943;28;20020;-75
2022/03/14 12:09:26;;;;;;;12.48;7.30;;;9.90;99.90;;;;;;5097815;28;20408;-75
2022/03/14 12:11:57;;;;;;;12.48;7.50;;;9.80;99.90;;;;;;5097967;28;20028;-75
2022/03/14 12:14:44;;;;;;;13.20;7.40;;;9.70;99.90;;;;;;5097879;28;20016;-75
2022/03/14 12:17:16;;;;;;;22.75;9.73;;;9.70;99.90;;;;;;5097439;28;20110;-75
2022/03/14 12:19:48;;;;;;;15.32;8.93;;;9.60;99.90;;;;;;5091259;28;20053;-75
2022/03/14 12:22:35;;;;;;;15.40;8.88;;;9.60;99.90;;;;;;5077012;28;20028;-75
2022/03/14 12:25:05;;;;;;;17.58;9.30;;;9.70;99.90;;;;;;5059116;28;20031;-75
2022/03/14 12:27:41;;;;;;;16.15;9.20;;;9.90;99.90;;;;;;5076918;28;20024;-75
2022/03/14 12:30:32;;;;;;;13.07;8.48;;;10.10;99.90;;;;;;5077968;28;20024;-75
2022/03/14 12:33:02;;;;;;;15.98;8.07;;;10.30;99.90;;;;;;5077668;28;20024;-75
2022/03/14 12:35:34;;;;;;;17.70;9.15;;;10.40;99.90;;;;;;5078478;28;20070;-75
2022/03/14 12:38:21;;;;;;;17.13;9.13;;;10.30;99.90;;;;;;5077634;28;20024;-75
2022/03/14 12:40:56;;;;;;;15.82;10.13;;;10.10;99.90;;;;;;5077936;28;20055;-75
2022/03/14 12:43:27;;;;;;;19.27;10.55;;;10.10;99.90;;;;;;5077525;28;20078;-75
2022/03/14 12:45:58;;;;;;;20.70;9.57;;;10.10;99.90;;;;;;5077707;28;20413;-75
2022/03/14 12:48:29;;;;;;;15.10;9.15;;;10.20;99.90;;;;;;5077934;28;20024;-75
2022/03/14 12:50:59;;;;;;;19.20;8.75;;;10.40;99.90;;;;;;5076720;28;20024;-75
2022/03/14 12:53:29;;;;;;;13.43;8.02;;;10.40;99.90;;;;;;5076530;28;20345;-75
2022/03/14 12:55:59;;;;;;;14.38;7.85;;;10.40;99.90;;;;;;5077635;28;20043;-75
2022/03/14 12:58:32;;;;;;;12.50;7.75;;;10.50;99.90;;;;;;5076518;28;20021;-75